Hyde Park Estates, New Mexico
Current Conditions -  °F | °C
As of 9:53 PM on Tuesday 21 Oct 2014 (Local Time) from KSAF Reporting Station
Broken Clouds Broken Clouds  
Wind Chill: 54°   Ceiling: 4300
Heat Index: 54°   Visibility: 10mi
Dew Point: 46°   Wind: 7mph
Humidity: 75%   Direction: 150°SSE
Pressure: 30.14"   Gusts: NA
Location:  35.7017°N, 105.921°W
Report Text: KSAF 220353Z AUTO 15006KT 10SM BKN043 BKN055 BKN090 12/08 A3014 RMK AO2 SLP144 T01220078
Loading
Personal Weather Stations






























Interactive Weather Map
Tropical Storm Tracking
New forecast layout! Learn more

10-Day Weather Forecast

Advertisements
Track Severe Weather on mobile